sensor_id;sensor_type;location;lat;lon;timestamp;P1;durP1;ratioP1;P2;durP2;ratioP2
50267;SDS011;36153;50.960;6.220;2023-07-16T00:00:55;3.50;;;1.67;;
50267;SDS011;36153;50.960;6.220;2023-07-16T00:03:55;3.75;;;1.13;;
50267;SDS011;36153;50.960;6.220;2023-07-16T00:06:55;4.00;;;1.50;;
50267;SDS011;36153;50.960;6.220;2023-07-16T00:09:56;2.35;;;1.20;;
50267;SDS011;36153;50.960;6.220;2023-07-16T00:12:56;3.35;;;1.95;;
50267;SDS011;36153;50.960;6.220;2023-07-16T00:15:56;6.65;;;1.33;;
50267;SDS011;36153;50.960;6.220;2023-07-16T00:18:57;3.30;;;1.52;;
50267;SDS011;36153;50.960;6.220;2023-07-16T00:21:57;3.67;;;1.10;;
50267;SDS011;36153;50.960;6.220;2023-07-16T00:24:57;5.35;;;1.48;;
50267;SDS011;36153;50.960;6.220;2023-07-16T00:27:58;2.63;;;1.40;;
50267;SDS011;36153;50.960;6.220;2023-07-16T00:30:58;3.35;;;1.13;;
50267;SDS011;36153;50.960;6.220;2023-07-16T00:33:58;5.05;;;2.25;;
50267;SDS011;36153;50.960;6.220;2023-07-16T00:36:59;2.97;;;1.50;;
50267;SDS011;36153;50.960;6.220;2023-07-16T00:40:01;2.33;;;1.40;;
50267;SDS011;36153;50.960;6.220;2023-07-16T00:43:02;2.65;;;1.73;;
50267;SDS011;36153;50.960;6.220;2023-07-16T00:46:02;4.20;;;1.95;;
50267;SDS011;36153;50.960;6.220;2023-07-16T00:49:03;1.25;;;1.00;;
50267;SDS011;36153;50.960;6.220;2023-07-16T00:52:03;1.40;;;1.17;;
50267;SDS011;36153;50.960;6.220;2023-07-16T00:55:06;4.03;;;1.95;;
50267;SDS011;36153;50.960;6.220;2023-07-16T00:58:07;2.97;;;1.33;;
50267;SDS011;36153;50.960;6.220;2023-07-16T01:01:07;2.05;;;1.10;;
50267;SDS011;36153;50.960;6.220;2023-07-16T01:04:07;3.00;;;1.10;;
50267;SDS011;36153;50.960;6.220;2023-07-16T01:07:08;5.07;;;1.25;;
50267;SDS011;36153;50.960;6.220;2023-07-16T01:10:11;1.55;;;1.20;;
50267;SDS011;36153;50.960;6.220;2023-07-16T01:13:12;2.88;;;1.50;;
50267;SDS011;36153;50.960;6.220;2023-07-16T01:16:23;4.82;;;1.05;;
50267;SDS011;36153;50.960;6.220;2023-07-16T01:19:25;3.78;;;1.30;;
50267;SDS011;36153;50.960;6.220;2023-07-16T01:22:27;2.35;;;1.15;;
50267;SDS011;36153;50.960;6.220;2023-07-16T01:32:14;3.15;;;1.02;;
50267;SDS011;36153;50.960;6.220;2023-07-16T01:35:15;2.55;;;1.23;;
50267;SDS011;36153;50.960;6.220;2023-07-16T01:38:16;6.93;;;1.58;;
50267;SDS011;36153;50.960;6.220;2023-07-16T01:41:18;4.05;;;1.38;;
50267;SDS011;36153;50.960;6.220;2023-07-16T01:44:19;5.63;;;2.00;;
50267;SDS011;36153;50.960;6.220;2023-07-16T01:47:23;4.15;;;1.40;;
50267;SDS011;36153;50.960;6.220;2023-07-16T01:50:31;1.88;;;1.17;;
50267;SDS011;36153;50.960;6.220;2023-07-16T01:53:32;2.95;;;0.90;;
50267;SDS011;36153;50.960;6.220;2023-07-16T01:56:33;3.10;;;1.17;;
50267;SDS011;36153;50.960;6.220;2023-07-16T01:59:33;5.20;;;1.50;;
50267;SDS011;36153;50.960;6.220;2023-07-16T02:02:33;3.70;;;1.33;;
50267;SDS011;36153;50.960;6.220;2023-07-16T02:05:34;4.35;;;1.85;;
50267;SDS011;36153;50.960;6.220;2023-07-16T02:08:34;1.98;;;0.90;;
50267;SDS011;36153;50.960;6.220;2023-07-16T02:11:34;3.65;;;1.30;;
50267;SDS011;36153;50.960;6.220;2023-07-16T02:14:35;1.75;;;0.90;;
50267;SDS011;36153;50.960;6.220;2023-07-16T02:17:35;2.90;;;1.10;;
50267;SDS011;36153;50.960;6.220;2023-07-16T02:20:35;3.45;;;1.50;;
50267;SDS011;36153;50.960;6.220;2023-07-16T02:23:36;3.65;;;2.17;;
50267;SDS011;36153;50.960;6.220;2023-07-16T02:26:36;5.97;;;1.45;;
50267;SDS011;36153;50.960;6.220;2023-07-16T02:29:36;4.20;;;1.60;;
50267;SDS011;36153;50.960;6.220;2023-07-16T02:32:37;2.33;;;1.15;;
50267;SDS011;36153;50.960;6.220;2023-07-16T02:35:37;1.92;;;0.73;;
50267;SDS011;36153;50.960;6.220;2023-07-16T02:38:37;2.85;;;1.20;;
50267;SDS011;36153;50.960;6.220;2023-07-16T02:41:38;3.47;;;1.30;;
50267;SDS011;36153;50.960;6.220;2023-07-16T02:44:38;2.95;;;0.98;;
50267;SDS011;36153;50.960;6.220;2023-07-16T02:47:43;3.90;;;1.02;;
50267;SDS011;36153;50.960;6.220;2023-07-16T02:50:43;2.70;;;1.50;;
50267;SDS011;36153;50.960;6.220;2023-07-16T02:53:44;3.22;;;1.40;;
50267;SDS011;36153;50.960;6.220;2023-07-16T02:56:44;3.67;;;1.50;;
50267;SDS011;36153;50.960;6.220;2023-07-16T02:59:44;6.72;;;1.30;;
50267;SDS011;36153;50.960;6.220;2023-07-16T03:02:45;1.35;;;0.90;;
50267;SDS011;36153;50.960;6.220;2023-07-16T03:05:45;7.28;;;2.08;;
50267;SDS011;36153;50.960;6.220;2023-07-16T03:08:45;3.33;;;1.30;;
50267;SDS011;36153;50.960;6.220;2023-07-16T03:11:45;4.40;;;1.02;;
50267;SDS011;36153;50.960;6.220;2023-07-16T03:14:46;5.40;;;1.83;;
50267;SDS011;36153;50.960;6.220;2023-07-16T03:17:47;4.85;;;1.40;;
50267;SDS011;36153;50.960;6.220;2023-07-16T03:20:47;2.55;;;1.35;;
50267;SDS011;36153;50.960;6.220;2023-07-16T03:23:48;5.40;;;1.35;;
50267;SDS011;36153;50.960;6.220;2023-07-16T03:26:48;4.82;;;1.60;;
50267;SDS011;36153;50.960;6.220;2023-07-16T03:29:48;2.90;;;1.90;;
50267;SDS011;36153;50.960;6.220;2023-07-16T03:32:49;3.47;;;1.27;;
50267;SDS011;36153;50.960;6.220;2023-07-16T03:35:49;3.25;;;1.58;;
50267;SDS011;36153;50.960;6.220;2023-07-16T03:38:49;3.47;;;1.23;;
50267;SDS011;36153;50.960;6.220;2023-07-16T03:41:50;4.20;;;2.15;;
50267;SDS011;36153;50.960;6.220;2023-07-16T03:44:50;4.20;;;1.40;;
50267;SDS011;36153;50.960;6.220;2023-07-16T03:47:50;3.88;;;1.40;;
50267;SDS011;36153;50.960;6.220;2023-07-16T03:50:51;3.10;;;1.50;;
50267;SDS011;36153;50.960;6.220;2023-07-16T03:53:51;5.93;;;1.92;;
50267;SDS011;36153;50.960;6.220;2023-07-16T03:56:51;3.08;;;1.45;;
50267;SDS011;36153;50.960;6.220;2023-07-16T03:59:52;5.20;;;1.83;;
50267;SDS011;36153;50.960;6.220;2023-07-16T04:02:52;4.45;;;1.67;;
50267;SDS011;36153;50.960;6.220;2023-07-16T04:06:00;2.13;;;1.38;;
50267;SDS011;36153;50.960;6.220;2023-07-16T04:09:04;3.83;;;1.52;;
50267;SDS011;36153;50.960;6.220;2023-07-16T04:12:05;4.60;;;1.55;;
50267;SDS011;36153;50.960;6.220;2023-07-16T04:15:06;3.65;;;1.58;;
50267;SDS011;36153;50.960;6.220;2023-07-16T04:18:10;3.42;;;1.40;;
50267;SDS011;36153;50.960;6.220;2023-07-16T04:21:10;3.33;;;1.67;;
50267;SDS011;36153;50.960;6.220;2023-07-16T04:24:10;6.45;;;1.65;;
50267;SDS011;36153;50.960;6.220;2023-07-16T04:27:11;2.83;;;1.60;;
50267;SDS011;36153;50.960;6.220;2023-07-16T04:30:11;5.72;;;1.98;;
50267;SDS011;36153;50.960;6.220;2023-07-16T04:33:11;5.63;;;2.28;;
50267;SDS011;36153;50.960;6.220;2023-07-16T04:36:12;4.35;;;1.70;;
50267;SDS011;36153;50.960;6.220;2023-07-16T04:39:12;6.25;;;1.80;;
50267;SDS011;36153;50.960;6.220;2023-07-16T04:42:13;9.77;;;2.45;;
50267;SDS011;36153;50.960;6.220;2023-07-16T04:45:13;3.78;;;1.80;;
50267;SDS011;36153;50.960;6.220;2023-07-16T04:48:14;4.22;;;1.88;;
50267;SDS011;36153;50.960;6.220;2023-07-16T04:51:14;4.47;;;2.10;;
50267;SDS011;36153;50.960;6.220;2023-07-16T04:54:14;5.03;;;2.55;;
50267;SDS011;36153;50.960;6.220;2023-07-16T04:57:15;4.07;;;1.60;;
50267;SDS011;36153;50.960;6.220;2023-07-16T05:00:15;5.43;;;2.30;;
50267;SDS011;36153;50.960;6.220;2023-07-16T05:03:15;7.10;;;2.22;;
50267;SDS011;36153;50.960;6.220;2023-07-16T05:06:16;6.28;;;2.17;;
50267;SDS011;36153;50.960;6.220;2023-07-16T05:09:16;6.10;;;2.25;;
50267;SDS011;36153;50.960;6.220;2023-07-16T05:12:16;5.07;;;2.03;;
50267;SDS011;36153;50.960;6.220;2023-07-16T05:15:17;6.28;;;2.20;;
50267;SDS011;36153;50.960;6.220;2023-07-16T05:18:17;4.53;;;2.38;;
50267;SDS011;36153;50.960;6.220;2023-07-16T05:21:17;5.32;;;2.63;;
50267;SDS011;36153;50.960;6.220;2023-07-16T05:24:18;5.53;;;2.42;;
50267;SDS011;36153;50.960;6.220;2023-07-16T05:27:18;6.55;;;2.28;;
50267;SDS011;36153;50.960;6.220;2023-07-16T05:30:18;5.95;;;2.00;;
50267;SDS011;36153;50.960;6.220;2023-07-16T05:33:19;5.88;;;2.60;;
50267;SDS011;36153;50.960;6.220;2023-07-16T05:36:19;6.70;;;2.30;;
50267;SDS011;36153;50.960;6.220;2023-07-16T05:39:20;4.35;;;2.30;;
50267;SDS011;36153;50.960;6.220;2023-07-16T05:42:21;6.90;;;2.88;;
50267;SDS011;36153;50.960;6.220;2023-07-16T05:45:22;5.38;;;2.28;;
50267;SDS011;36153;50.960;6.220;2023-07-16T05:48:23;6.55;;;2.72;;
50267;SDS011;36153;50.960;6.220;2023-07-16T05:51:24;7.57;;;3.30;;
50267;SDS011;36153;50.960;6.220;2023-07-16T05:54:24;7.20;;;2.80;;
50267;SDS011;36153;50.960;6.220;2023-07-16T05:57:25;5.72;;;3.05;;
50267;SDS011;36153;50.960;6.220;2023-07-16T06:00:25;6.90;;;2.75;;
50267;SDS011;36153;50.960;6.220;2023-07-16T06:03:25;8.05;;;2.55;;
50267;SDS011;36153;50.960;6.220;2023-07-16T06:06:27;7.15;;;3.15;;
50267;SDS011;36153;50.960;6.220;2023-07-16T06:09:28;8.57;;;2.80;;
50267;SDS011;36153;50.960;6.220;2023-07-16T06:12:28;7.90;;;2.97;;
50267;SDS011;36153;50.960;6.220;2023-07-16T06:15:29;8.93;;;2.67;;
50267;SDS011;36153;50.960;6.220;2023-07-16T06:18:29;9.70;;;3.00;;
50267;SDS011;36153;50.960;6.220;2023-07-16T06:21:29;6.93;;;2.90;;
50267;SDS011;36153;50.960;6.220;2023-07-16T06:24:30;6.82;;;3.17;;
50267;SDS011;36153;50.960;6.220;2023-07-16T06:27:30;6.70;;;3.25;;
50267;SDS011;36153;50.960;6.220;2023-07-16T06:30:31;6.90;;;3.03;;
50267;SDS011;36153;50.960;6.220;2023-07-16T06:33:32;7.25;;;2.78;;
50267;SDS011;36153;50.960;6.220;2023-07-16T06:36:33;6.90;;;3.28;;
50267;SDS011;36153;50.960;6.220;2023-07-16T06:39:33;7.10;;;2.92;;
50267;SDS011;36153;50.960;6.220;2023-07-16T06:42:33;5.75;;;3.22;;
50267;SDS011;36153;50.960;6.220;2023-07-16T06:45:34;4.63;;;2.58;;
50267;SDS011;36153;50.960;6.220;2023-07-16T06:48:34;6.30;;;3.67;;
50267;SDS011;36153;50.960;6.220;2023-07-16T06:51:34;6.65;;;3.88;;
50267;SDS011;36153;50.960;6.220;2023-07-16T06:54:35;5.20;;;3.35;;
50267;SDS011;36153;50.960;6.220;2023-07-16T06:57:35;9.35;;;3.38;;
50267;SDS011;36153;50.960;6.220;2023-07-16T07:00:36;6.68;;;3.20;;
50267;SDS011;36153;50.960;6.220;2023-07-16T07:03:36;8.15;;;2.67;;
50267;SDS011;36153;50.960;6.220;2023-07-16T07:06:37;6.50;;;3.70;;
50267;SDS011;36153;50.960;6.220;2023-07-16T07:09:37;5.50;;;2.95;;
50267;SDS011;36153;50.960;6.220;2023-07-16T07:12:38;9.75;;;3.42;;
50267;SDS011;36153;50.960;6.220;2023-07-16T07:15:39;9.00;;;3.05;;
50267;SDS011;36153;50.960;6.220;2023-07-16T07:18:39;7.57;;;3.53;;
50267;SDS011;36153;50.960;6.220;2023-07-16T07:21:39;10.02;;;3.83;;
50267;SDS011;36153;50.960;6.220;2023-07-16T07:24:40;9.20;;;3.28;;
50267;SDS011;36153;50.960;6.220;2023-07-16T07:27:40;5.35;;;3.38;;
50267;SDS011;36153;50.960;6.220;2023-07-16T07:30:40;5.90;;;2.40;;
50267;SDS011;36153;50.960;6.220;2023-07-16T07:33:41;5.15;;;3.03;;
50267;SDS011;36153;50.960;6.220;2023-07-16T07:36:41;7.53;;;2.63;;
50267;SDS011;36153;50.960;6.220;2023-07-16T07:39:41;7.45;;;3.40;;
50267;SDS011;36153;50.960;6.220;2023-07-16T07:42:42;7.22;;;3.90;;
50267;SDS011;36153;50.960;6.220;2023-07-16T07:45:43;7.50;;;2.92;;
50267;SDS011;36153;50.960;6.220;2023-07-16T07:48:43;7.50;;;3.47;;
50267;SDS011;36153;50.960;6.220;2023-07-16T07:51:44;6.05;;;3.88;;
50267;SDS011;36153;50.960;6.220;2023-07-16T07:54:44;5.60;;;3.10;;
50267;SDS011;36153;50.960;6.220;2023-07-16T07:57:44;6.43;;;3.00;;
50267;SDS011;36153;50.960;6.220;2023-07-16T08:00:45;6.65;;;3.00;;
50267;SDS011;36153;50.960;6.220;2023-07-16T08:03:45;7.45;;;2.85;;
50267;SDS011;36153;50.960;6.220;2023-07-16T08:06:45;7.10;;;3.03;;
50267;SDS011;36153;50.960;6.220;2023-07-16T08:09:46;5.22;;;3.08;;
50267;SDS011;36153;50.960;6.220;2023-07-16T08:12:46;6.95;;;3.17;;
50267;SDS011;36153;50.960;6.220;2023-07-16T08:15:47;5.97;;;2.60;;
50267;SDS011;36153;50.960;6.220;2023-07-16T08:18:48;7.97;;;3.35;;
50267;SDS011;36153;50.960;6.220;2023-07-16T08:21:48;6.60;;;3.03;;
50267;SDS011;36153;50.960;6.220;2023-07-16T08:24:48;4.90;;;2.85;;
50267;SDS011;36153;50.960;6.220;2023-07-16T08:27:49;7.55;;;3.30;;
50267;SDS011;36153;50.960;6.220;2023-07-16T08:30:49;5.75;;;3.17;;
50267;SDS011;36153;50.960;6.220;2023-07-16T08:33:49;8.20;;;3.25;;
50267;SDS011;36153;50.960;6.220;2023-07-16T08:36:50;5.68;;;2.92;;
50267;SDS011;36153;50.960;6.220;2023-07-16T08:39:53;6.30;;;3.50;;
50267;SDS011;36153;50.960;6.220;2023-07-16T08:42:53;6.03;;;2.60;;
50267;SDS011;36153;50.960;6.220;2023-07-16T08:45:55;4.43;;;2.30;;
50267;SDS011;36153;50.960;6.220;2023-07-16T08:48:56;5.90;;;2.92;;
50267;SDS011;36153;50.960;6.220;2023-07-16T08:51:57;4.22;;;2.55;;
50267;SDS011;36153;50.960;6.220;2023-07-16T08:54:57;6.57;;;3.20;;
50267;SDS011;36153;50.960;6.220;2023-07-16T08:57:58;5.05;;;2.45;;
50267;SDS011;36153;50.960;6.220;2023-07-16T09:00:59;3.95;;;2.83;;
50267;SDS011;36153;50.960;6.220;2023-07-16T09:04:00;6.75;;;2.67;;
50267;SDS011;36153;50.960;6.220;2023-07-16T09:07:01;7.13;;;2.97;;
50267;SDS011;36153;50.960;6.220;2023-07-16T09:10:01;7.30;;;3.25;;
50267;SDS011;36153;50.960;6.220;2023-07-16T09:13:02;6.20;;;2.90;;
50267;SDS011;36153;50.960;6.220;2023-07-16T09:16:02;9.10;;;3.05;;
50267;SDS011;36153;50.960;6.220;2023-07-16T09:19:08;5.65;;;3.03;;
50267;SDS011;36153;50.960;6.220;2023-07-16T09:22:10;6.70;;;2.95;;
50267;SDS011;36153;50.960;6.220;2023-07-16T09:25:11;10.77;;;3.40;;
50267;SDS011;36153;50.960;6.220;2023-07-16T09:28:11;4.72;;;2.30;;
50267;SDS011;36153;50.960;6.220;2023-07-16T09:31:12;7.18;;;2.53;;
50267;SDS011;36153;50.960;6.220;2023-07-16T09:34:12;6.32;;;2.70;;
50267;SDS011;36153;50.960;6.220;2023-07-16T09:37:13;4.63;;;3.03;;
50267;SDS011;36153;50.960;6.220;2023-07-16T09:40:13;5.38;;;3.10;;
50267;SDS011;36153;50.960;6.220;2023-07-16T09:43:13;4.68;;;2.35;;
50267;SDS011;36153;50.960;6.220;2023-07-16T09:46:14;4.03;;;2.38;;
50267;SDS011;36153;50.960;6.220;2023-07-16T09:49:14;5.30;;;2.38;;
50267;SDS011;36153;50.960;6.220;2023-07-16T09:52:15;4.40;;;2.17;;
50267;SDS011;36153;50.960;6.220;2023-07-16T09:55:16;5.95;;;2.30;;
50267;SDS011;36153;50.960;6.220;2023-07-16T09:58:18;5.47;;;2.20;;
50267;SDS011;36153;50.960;6.220;2023-07-16T10:01:22;4.50;;;2.65;;
50267;SDS011;36153;50.960;6.220;2023-07-16T10:04:23;5.85;;;2.92;;
50267;SDS011;36153;50.960;6.220;2023-07-16T10:07:24;6.28;;;2.42;;
50267;SDS011;36153;50.960;6.220;2023-07-16T10:10:29;4.90;;;2.80;;
50267;SDS011;36153;50.960;6.220;2023-07-16T10:13:43;5.97;;;2.50;;
50267;SDS011;36153;50.960;6.220;2023-07-16T10:16:48;3.75;;;2.38;;
50267;SDS011;36153;50.960;6.220;2023-07-16T10:22:54;5.53;;;2.65;;
50267;SDS011;36153;50.960;6.220;2023-07-16T10:26:00;6.43;;;3.00;;
50267;SDS011;36153;50.960;6.220;2023-07-16T10:29:05;6.82;;;2.70;;
50267;SDS011;36153;50.960;6.220;2023-07-16T10:32:06;7.63;;;3.08;;
50267;SDS011;36153;50.960;6.220;2023-07-16T10:35:08;4.00;;;1.80;;
50267;SDS011;36153;50.960;6.220;2023-07-16T10:38:09;6.70;;;1.95;;
50267;SDS011;36153;50.960;6.220;2023-07-16T10:41:09;6.32;;;2.83;;
50267;SDS011;36153;50.960;6.220;2023-07-16T10:44:11;5.72;;;2.42;;
50267;SDS011;36153;50.960;6.220;2023-07-16T10:47:24;6.18;;;2.38;;
50267;SDS011;36153;50.960;6.220;2023-07-16T10:50:32;3.95;;;3.03;;
50267;SDS011;36153;50.960;6.220;2023-07-16T10:53:33;4.82;;;2.53;;
50267;SDS011;36153;50.960;6.220;2023-07-16T10:56:35;4.40;;;2.13;;
50267;SDS011;36153;50.960;6.220;2023-07-16T10:59:37;5.40;;;2.15;;
50267;SDS011;36153;50.960;6.220;2023-07-16T11:02:39;4.13;;;2.40;;
50267;SDS011;36153;50.960;6.220;2023-07-16T11:05:40;4.13;;;2.15;;
50267;SDS011;36153;50.960;6.220;2023-07-16T11:08:41;5.43;;;2.08;;
50267;SDS011;36153;50.960;6.220;2023-07-16T11:11:41;5.40;;;2.10;;
50267;SDS011;36153;50.960;6.220;2023-07-16T11:14:45;4.10;;;2.40;;
50267;SDS011;36153;50.960;6.220;2023-07-16T11:17:49;3.47;;;2.22;;
50267;SDS011;36153;50.960;6.220;2023-07-16T11:20:51;3.38;;;2.08;;
50267;SDS011;36153;50.960;6.220;2023-07-16T11:23:52;5.07;;;2.53;;
50267;SDS011;36153;50.960;6.220;2023-07-16T11:26:53;5.70;;;2.70;;
50267;SDS011;36153;50.960;6.220;2023-07-16T11:29:57;4.65;;;2.22;;
50267;SDS011;36153;50.960;6.220;2023-07-16T11:32:59;5.53;;;2.55;;
50267;SDS011;36153;50.960;6.220;2023-07-16T11:36:00;3.58;;;2.35;;
50267;SDS011;36153;50.960;6.220;2023-07-16T11:39:02;4.90;;;2.13;;
50267;SDS011;36153;50.960;6.220;2023-07-16T11:42:03;4.32;;;2.10;;
50267;SDS011;36153;50.960;6.220;2023-07-16T11:45:05;3.90;;;2.58;;
50267;SDS011;36153;50.960;6.220;2023-07-16T11:48:14;3.75;;;2.47;;
50267;SDS011;36153;50.960;6.220;2023-07-16T11:51:15;3.83;;;2.13;;
50267;SDS011;36153;50.960;6.220;2023-07-16T11:54:15;3.97;;;2.42;;
50267;SDS011;36153;50.960;6.220;2023-07-16T11:57:15;5.43;;;2.30;;
50267;SDS011;36153;50.960;6.220;2023-07-16T12:00:16;3.58;;;2.50;;
50267;SDS011;36153;50.960;6.220;2023-07-16T12:03:17;4.82;;;2.65;;
50267;SDS011;36153;50.960;6.220;2023-07-16T12:06:18;5.32;;;2.85;;
50267;SDS011;36153;50.960;6.220;2023-07-16T12:09:18;3.83;;;2.75;;
50267;SDS011;36153;50.960;6.220;2023-07-16T12:12:18;3.58;;;2.38;;
50267;SDS011;36153;50.960;6.220;2023-07-16T12:15:18;3.53;;;1.80;;
50267;SDS011;36153;50.960;6.220;2023-07-16T12:18:19;4.45;;;2.30;;
50267;SDS011;36153;50.960;6.220;2023-07-16T12:21:19;3.42;;;2.70;;
50267;SDS011;36153;50.960;6.220;2023-07-16T12:24:19;4.05;;;2.50;;
50267;SDS011;36153;50.960;6.220;2023-07-16T12:27:20;3.83;;;1.55;;
50267;SDS011;36153;50.960;6.220;2023-07-16T12:30:20;4.20;;;1.83;;
50267;SDS011;36153;50.960;6.220;2023-07-16T12:33:21;3.35;;;2.17;;
50267;SDS011;36153;50.960;6.220;2023-07-16T12:36:21;3.20;;;1.55;;
50267;SDS011;36153;50.960;6.220;2023-07-16T12:39:21;4.75;;;1.63;;
50267;SDS011;36153;50.960;6.220;2023-07-16T12:42:22;3.15;;;1.63;;
50267;SDS011;36153;50.960;6.220;2023-07-16T12:45:23;3.83;;;2.33;;
50267;SDS011;36153;50.960;6.220;2023-07-16T12:48:23;2.92;;;1.98;;
50267;SDS011;36153;50.960;6.220;2023-07-16T12:51:23;4.07;;;2.30;;
50267;SDS011;36153;50.960;6.220;2023-07-16T12:54:24;5.55;;;2.60;;
50267;SDS011;36153;50.960;6.220;2023-07-16T12:57:24;6.90;;;2.38;;
50267;SDS011;36153;50.960;6.220;2023-07-16T13:00:24;3.03;;;2.05;;
50267;SDS011;36153;50.960;6.220;2023-07-16T13:03:25;7.57;;;3.10;;
50267;SDS011;36153;50.960;6.220;2023-07-16T13:06:25;4.28;;;2.10;;
50267;SDS011;36153;50.960;6.220;2023-07-16T13:09:26;3.47;;;1.95;;
50267;SDS011;36153;50.960;6.220;2023-07-16T13:12:26;2.72;;;1.63;;
50267;SDS011;36153;50.960;6.220;2023-07-16T13:15:26;4.65;;;1.80;;
50267;SDS011;36153;50.960;6.220;2023-07-16T13:18:27;4.03;;;2.03;;
50267;SDS011;36153;50.960;6.220;2023-07-16T13:21:27;6.70;;;2.45;;
50267;SDS011;36153;50.960;6.220;2023-07-16T13:24:27;4.97;;;2.08;;
50267;SDS011;36153;50.960;6.220;2023-07-16T13:27:28;4.80;;;1.95;;
50267;SDS011;36153;50.960;6.220;2023-07-16T13:30:28;4.28;;;2.33;;
50267;SDS011;36153;50.960;6.220;2023-07-16T13:33:28;5.35;;;1.88;;
50267;SDS011;36153;50.960;6.220;2023-07-16T13:36:29;3.47;;;1.85;;
50267;SDS011;36153;50.960;6.220;2023-07-16T13:39:30;4.35;;;1.67;;
50267;SDS011;36153;50.960;6.220;2023-07-16T13:42:30;3.92;;;2.17;;
50267;SDS011;36153;50.960;6.220;2023-07-16T13:45:31;6.43;;;2.05;;
50267;SDS011;36153;50.960;6.220;2023-07-16T13:48:33;3.00;;;1.92;;
50267;SDS011;36153;50.960;6.220;2023-07-16T13:51:34;3.45;;;2.10;;
50267;SDS011;36153;50.960;6.220;2023-07-16T13:54:34;2.10;;;1.88;;
50267;SDS011;36153;50.960;6.220;2023-07-16T13:57:34;4.63;;;2.10;;
50267;SDS011;36153;50.960;6.220;2023-07-16T14:00:34;4.15;;;1.77;;
50267;SDS011;36153;50.960;6.220;2023-07-16T14:03:35;3.25;;;1.73;;
50267;SDS011;36153;50.960;6.220;2023-07-16T14:06:35;4.22;;;2.45;;
50267;SDS011;36153;50.960;6.220;2023-07-16T14:09:37;5.10;;;1.63;;
50267;SDS011;36153;50.960;6.220;2023-07-16T14:12:37;2.72;;;2.00;;
50267;SDS011;36153;50.960;6.220;2023-07-16T14:15:37;3.63;;;2.20;;
50267;SDS011;36153;50.960;6.220;2023-07-16T14:18:38;5.07;;;2.47;;
50267;SDS011;36153;50.960;6.220;2023-07-16T14:21:39;4.13;;;1.67;;
50267;SDS011;36153;50.960;6.220;2023-07-16T14:24:39;2.72;;;1.75;;
50267;SDS011;36153;50.960;6.220;2023-07-16T14:27:40;6.07;;;2.05;;
50267;SDS011;36153;50.960;6.220;2023-07-16T14:30:40;3.67;;;2.00;;
50267;SDS011;36153;50.960;6.220;2023-07-16T14:33:41;3.10;;;1.95;;
50267;SDS011;36153;50.960;6.220;2023-07-16T14:36:41;5.05;;;2.60;;
50267;SDS011;36153;50.960;6.220;2023-07-16T14:39:42;3.05;;;2.30;;
50267;SDS011;36153;50.960;6.220;2023-07-16T14:42:42;3.92;;;2.20;;
50267;SDS011;36153;50.960;6.220;2023-07-16T14:45:43;4.30;;;2.30;;
50267;SDS011;36153;50.960;6.220;2023-07-16T14:48:43;4.20;;;2.20;;
50267;SDS011;36153;50.960;6.220;2023-07-16T14:51:44;5.50;;;2.22;;
50267;SDS011;36153;50.960;6.220;2023-07-16T14:54:44;6.18;;;2.72;;
50267;SDS011;36153;50.960;6.220;2023-07-16T14:57:45;5.85;;;2.33;;
50267;SDS011;36153;50.960;6.220;2023-07-16T15:00:45;3.17;;;2.33;;
50267;SDS011;36153;50.960;6.220;2023-07-16T15:03:46;5.75;;;2.00;;
50267;SDS011;36153;50.960;6.220;2023-07-16T15:06:46;4.53;;;1.88;;
50267;SDS011;36153;50.960;6.220;2023-07-16T15:09:46;5.30;;;2.40;;
50267;SDS011;36153;50.960;6.220;2023-07-16T15:12:46;4.68;;;2.00;;
50267;SDS011;36153;50.960;6.220;2023-07-16T15:15:50;2.17;;;1.52;;
50267;SDS011;36153;50.960;6.220;2023-07-16T15:18:51;3.67;;;1.98;;
50267;SDS011;36153;50.960;6.220;2023-07-16T15:21:52;3.28;;;1.95;;
50267;SDS011;36153;50.960;6.220;2023-07-16T15:24:52;3.08;;;1.98;;
50267;SDS011;36153;50.960;6.220;2023-07-16T15:27:53;5.72;;;1.45;;
50267;SDS011;36153;50.960;6.220;2023-07-16T15:30:53;2.83;;;1.65;;
50267;SDS011;36153;50.960;6.220;2023-07-16T15:33:54;3.33;;;2.42;;
50267;SDS011;36153;50.960;6.220;2023-07-16T15:36:55;6.00;;;2.60;;
50267;SDS011;36153;50.960;6.220;2023-07-16T15:39:55;5.47;;;2.25;;
50267;SDS011;36153;50.960;6.220;2023-07-16T15:42:57;3.47;;;1.92;;
50267;SDS011;36153;50.960;6.220;2023-07-16T15:45:57;4.60;;;2.10;;
50267;SDS011;36153;50.960;6.220;2023-07-16T15:48:58;3.17;;;1.83;;
50267;SDS011;36153;50.960;6.220;2023-07-16T15:51:58;5.32;;;2.40;;
50267;SDS011;36153;50.960;6.220;2023-07-16T15:54:59;4.50;;;2.35;;
50267;SDS011;36153;50.960;6.220;2023-07-16T15:57:59;4.95;;;2.47;;
50267;SDS011;36153;50.960;6.220;2023-07-16T16:01:00;4.28;;;2.00;;
50267;SDS011;36153;50.960;6.220;2023-07-16T16:04:00;3.55;;;2.13;;
50267;SDS011;36153;50.960;6.220;2023-07-16T16:07:00;4.85;;;2.15;;
50267;SDS011;36153;50.960;6.220;2023-07-16T16:10:03;5.10;;;2.30;;
50267;SDS011;36153;50.960;6.220;2023-07-16T16:13:04;3.40;;;2.30;;
50267;SDS011;36153;50.960;6.220;2023-07-16T16:16:04;4.57;;;2.45;;
50267;SDS011;36153;50.960;6.220;2023-07-16T16:19:05;4.18;;;2.33;;
50267;SDS011;36153;50.960;6.220;2023-07-16T16:22:05;4.32;;;2.60;;
50267;SDS011;36153;50.960;6.220;2023-07-16T16:25:06;3.00;;;2.45;;
50267;SDS011;36153;50.960;6.220;2023-07-16T16:28:08;4.85;;;2.00;;
50267;SDS011;36153;50.960;6.220;2023-07-16T16:31:09;5.30;;;2.40;;
50267;SDS011;36153;50.960;6.220;2023-07-16T16:34:10;5.72;;;2.70;;
50267;SDS011;36153;50.960;6.220;2023-07-16T16:37:10;4.30;;;2.40;;
50267;SDS011;36153;50.960;6.220;2023-07-16T16:40:10;5.22;;;2.90;;
50267;SDS011;36153;50.960;6.220;2023-07-16T16:43:12;4.40;;;2.20;;
50267;SDS011;36153;50.960;6.220;2023-07-16T16:46:13;4.55;;;2.58;;
50267;SDS011;36153;50.960;6.220;2023-07-16T16:49:13;4.65;;;2.47;;
50267;SDS011;36153;50.960;6.220;2023-07-16T16:52:13;4.68;;;2.55;;
50267;SDS011;36153;50.960;6.220;2023-07-16T16:55:14;3.50;;;2.17;;
50267;SDS011;36153;50.960;6.220;2023-07-16T16:58:14;4.22;;;2.00;;
50267;SDS011;36153;50.960;6.220;2023-07-16T17:01:15;4.88;;;2.10;;
50267;SDS011;36153;50.960;6.220;2023-07-16T17:04:16;2.97;;;2.00;;
50267;SDS011;36153;50.960;6.220;2023-07-16T17:07:16;6.32;;;2.28;;
50267;SDS011;36153;50.960;6.220;2023-07-16T17:10:17;4.18;;;2.30;;
50267;SDS011;36153;50.960;6.220;2023-07-16T17:13:18;5.97;;;2.22;;
50267;SDS011;36153;50.960;6.220;2023-07-16T17:16:18;5.78;;;2.58;;
50267;SDS011;36153;50.960;6.220;2023-07-16T17:19:19;4.47;;;2.05;;
50267;SDS011;36153;50.960;6.220;2023-07-16T17:22:20;5.38;;;1.90;;
50267;SDS011;36153;50.960;6.220;2023-07-16T17:25:21;8.20;;;2.63;;
50267;SDS011;36153;50.960;6.220;2023-07-16T17:28:21;6.70;;;2.00;;
50267;SDS011;36153;50.960;6.220;2023-07-16T17:31:22;5.78;;;2.85;;
50267;SDS011;36153;50.960;6.220;2023-07-16T17:34:22;4.95;;;2.20;;
50267;SDS011;36153;50.960;6.220;2023-07-16T17:37:22;5.57;;;1.88;;
50267;SDS011;36153;50.960;6.220;2023-07-16T17:40:23;4.80;;;2.05;;
50267;SDS011;36153;50.960;6.220;2023-07-16T17:43:23;4.82;;;1.92;;
50267;SDS011;36153;50.960;6.220;2023-07-16T17:46:23;4.82;;;1.80;;
50267;SDS011;36153;50.960;6.220;2023-07-16T17:49:24;5.90;;;1.92;;
50267;SDS011;36153;50.960;6.220;2023-07-16T17:52:25;6.00;;;2.03;;
50267;SDS011;36153;50.960;6.220;2023-07-16T17:55:26;4.85;;;2.42;;
50267;SDS011;36153;50.960;6.220;2023-07-16T17:58:27;3.97;;;2.20;;
50267;SDS011;36153;50.960;6.220;2023-07-16T18:01:27;5.97;;;1.90;;
50267;SDS011;36153;50.960;6.220;2023-07-16T18:04:31;4.82;;;2.15;;
50267;SDS011;36153;50.960;6.220;2023-07-16T18:07:31;9.05;;;3.42;;
50267;SDS011;36153;50.960;6.220;2023-07-16T18:10:32;4.55;;;2.60;;
50267;SDS011;36153;50.960;6.220;2023-07-16T18:13:32;4.32;;;2.72;;
50267;SDS011;36153;50.960;6.220;2023-07-16T18:16:33;5.28;;;2.50;;
50267;SDS011;36153;50.960;6.220;2023-07-16T18:19:34;8.45;;;2.80;;